createdAt,value
2019-05-30T00:03:22.817Z,3.84
2019-05-30T00:08:27.010Z,3.64
2019-05-30T00:13:31.320Z,3.66
2019-05-30T00:18:35.439Z,3.55
2019-05-30T00:23:39.852Z,3.39
2019-05-30T00:28:43.972Z,3.30
2019-05-30T00:33:48.116Z,3.22
2019-05-30T00:38:52.116Z,3.24
2019-05-30T00:43:56.410Z,3.19
2019-05-30T00:49:00.790Z,3.05
2019-05-30T00:54:04.866Z,2.94
2019-05-30T00:59:08.882Z,3.15
2019-05-30T01:04:12.939Z,3.18
2019-05-30T01:09:17.025Z,3.03
2019-05-30T01:14:21.075Z,2.92
2019-05-30T01:19:25.087Z,2.79
2019-05-30T01:24:29.243Z,2.64
2019-05-30T01:29:34.415Z,2.67
2019-05-30T01:34:38.551Z,2.59
2019-05-30T01:39:42.618Z,2.64
2019-05-30T01:44:46.640Z,2.72
2019-05-30T01:49:50.673Z,2.59
2019-05-30T01:54:54.850Z,2.54
2019-05-30T01:59:58.996Z,2.44
2019-05-30T02:05:03.563Z,2.16
2019-05-30T02:10:10.072Z,2.11
2019-05-30T02:15:14.670Z,2.06
2019-05-30T02:20:18.993Z,1.96
2019-05-30T02:25:23.055Z,1.92
2019-05-30T02:30:27.091Z,1.86
2019-05-30T02:35:31.526Z,1.72
2019-05-30T02:40:36.038Z,1.61
2019-05-30T02:45:40.307Z,1.53
2019-05-30T02:50:44.773Z,1.45
2019-05-30T02:55:50.995Z,1.43
2019-05-30T03:00:55.204Z,1.45
2019-05-30T03:06:01.641Z,1.46
2019-05-30T03:11:09.373Z,1.46
2019-05-30T03:16:13.509Z,1.55
2019-05-30T03:21:17.549Z,1.81
2019-05-30T03:26:21.646Z,1.88
2019-05-30T03:31:29.947Z,2.05
2019-05-30T03:36:33.772Z,2.15
2019-05-30T03:41:38.422Z,2.27
2019-05-30T03:46:46.770Z,2.43
2019-05-30T03:51:53.225Z,2.54
2019-05-30T03:57:06.960Z,2.72
2019-05-30T04:02:22.398Z,2.95
2019-05-30T04:07:29.062Z,3.23
2019-05-30T04:12:52.816Z,3.50
2019-05-30T04:17:57.134Z,3.72
2019-05-30T04:23:01.735Z,4.05
2019-05-30T04:28:07.661Z,4.62
2019-05-30T04:33:23.677Z,11.69
2019-05-30T04:38:19.504Z,17.85
2019-05-30T04:43:24.050Z,20.37
2019-05-30T04:48:28.075Z,22.09
2019-05-30T04:53:32.225Z,23.55
2019-05-30T04:58:41.531Z,25.16
2019-05-30T05:03:46.191Z,25.98
2019-05-30T05:08:48.174Z,27.07
2019-05-30T05:13:52.461Z,26.36
2019-05-30T05:18:56.762Z,26.69
2019-05-30T05:24:01.092Z,26.43
2019-05-30T05:29:05.382Z,26.16
2019-05-30T05:34:09.504Z,26.02
2019-05-30T05:39:13.818Z,27.36
2019-05-30T05:44:18.581Z,28.20
2019-05-30T05:49:23.031Z,28.37
2019-05-30T05:54:27.776Z,28.28
2019-05-30T05:59:31.873Z,29.56
2019-05-30T06:04:36.054Z,28.25
2019-05-30T06:09:40.446Z,29.03
2019-05-30T06:14:44.836Z,28.94
2019-05-30T06:19:49.260Z,29.19
2019-05-30T06:24:53.702Z,29.08
2019-05-30T06:29:59.282Z,30.78
2019-05-30T06:35:04.172Z,29.67
2019-05-30T06:40:08.446Z,29.03
2019-05-30T06:45:13.393Z,28.93
2019-05-30T06:50:17.474Z,29.32
2019-05-30T06:55:21.627Z,29.72
2019-05-30T07:00:26.534Z,28.35
2019-05-30T07:05:32.928Z,28.16
2019-05-30T07:10:36.904Z,28.75
2019-05-30T07:15:41.090Z,30.98
2019-05-30T07:20:45.362Z,30.98
2019-05-30T07:25:49.538Z,31.35
2019-05-30T07:30:53.646Z,31.02
2019-05-30T07:35:57.723Z,30.67
2019-05-30T07:41:01.824Z,29.97
2019-05-30T07:46:06.017Z,29.49
2019-05-30T07:51:10.150Z,28.97
2019-05-30T07:56:14.413Z,29.39
2019-05-30T08:01:18.964Z,31.55
2019-05-30T08:06:22.995Z,31.51
2019-05-30T08:11:27.123Z,30.24
2019-05-30T08:16:31.643Z,30.23
2019-05-30T08:21:36.287Z,29.26
2019-05-30T08:26:40.585Z,28.50
2019-05-30T08:31:45.866Z,29.26
2019-05-30T08:36:50.005Z,29.01
2019-05-30T08:41:54.124Z,30.70
2019-05-30T08:46:58.318Z,30.69
2019-05-30T08:52:02.472Z,30.86
2019-05-30T08:57:06.642Z,31.59
2019-05-30T09:02:10.980Z,30.96
2019-05-30T09:07:15.012Z,30.72
2019-05-30T09:12:19.090Z,30.72
2019-05-30T09:17:23.195Z,29.55
2019-05-30T09:22:27.234Z,30.31
2019-05-30T09:27:31.406Z,30.68
2019-05-30T09:32:35.542Z,30.08
2019-05-30T09:37:40.566Z,28.93
2019-05-30T09:42:46.934Z,29.35
2019-05-30T09:47:51.481Z,29.24
2019-05-30T09:52:56.614Z,29.20
2019-05-30T09:58:01.604Z,29.10
2019-05-30T10:03:05.876Z,28.23
2019-05-30T10:08:11.753Z,28.31
2019-05-30T10:13:19.286Z,28.70
2019-05-30T10:18:25.011Z,28.02
2019-05-30T10:23:31.031Z,27.50
2019-05-30T10:28:37.134Z,27.10
2019-05-30T10:33:44.521Z,28.03
2019-05-30T10:38:53.805Z,27.94
2019-05-30T10:43:59.765Z,27.20
2019-05-30T10:49:03.899Z,26.77
2019-05-30T10:54:08.086Z,26.82
2019-05-30T10:59:12.163Z,27.48
2019-05-30T11:04:16.246Z,27.68
2019-05-30T11:09:29.761Z,26.49
2019-05-30T11:14:34.588Z,27.20
2019-05-30T11:19:39.706Z,26.57
2019-05-30T11:24:44.379Z,26.21
2019-05-30T11:29:48.730Z,25.59
2019-05-30T11:34:53.341Z,26.12
2019-05-30T11:39:57.693Z,26.25
2019-05-30T11:45:03.266Z,26.16
2019-05-30T11:50:08.846Z,26.24
2019-05-30T11:55:13.907Z,25.97
2019-05-30T12:00:19.272Z,26.04
2019-05-30T12:05:25.333Z,26.19
2019-05-30T12:10:30.648Z,26.00
2019-05-30T12:15:34.704Z,26.02
2019-05-30T12:20:39.867Z,25.39
2019-05-30T12:25:43.936Z,26.26
2019-05-30T12:30:57.742Z,25.16
2019-05-30T12:35:54.424Z,25.88
2019-05-30T12:40:59.137Z,25.75
2019-05-30T12:46:03.770Z,26.20
2019-05-30T12:51:07.945Z,26.25
2019-05-30T12:56:12.027Z,26.69
2019-05-30T13:01:16.076Z,26.03
2019-05-30T13:06:20.107Z,26.17
2019-05-30T13:11:24.158Z,26.71
2019-05-30T13:16:30.403Z,26.71
2019-05-30T13:21:34.668Z,25.03
2019-05-30T13:26:38.763Z,26.55
2019-05-30T13:31:42.787Z,26.40
2019-05-30T13:36:46.833Z,26.13
2019-05-30T13:41:51.285Z,26.36
2019-05-30T13:46:55.359Z,26.21
2019-05-30T13:52:00.770Z,26.47
2019-05-30T13:57:05.770Z,26.94
2019-05-30T14:02:10.407Z,26.97
2019-05-30T14:07:14.644Z,26.94
2019-05-30T14:12:18.831Z,26.53
2019-05-30T14:17:22.879Z,26.33
2019-05-30T14:22:27.207Z,26.80
2019-05-30T14:27:32.079Z,27.16
2019-05-30T14:32:36.176Z,27.55
2019-05-30T14:37:40.221Z,27.45
2019-05-30T14:42:44.305Z,26.45
2019-05-30T14:47:48.673Z,25.84
2019-05-30T14:52:52.871Z,25.83
2019-05-30T14:57:58.207Z,25.31
2019-05-30T15:03:03.012Z,24.91
2019-05-30T15:08:08.344Z,24.77
2019-05-30T15:13:13.756Z,24.72
2019-05-30T15:18:17.840Z,24.55
2019-05-30T15:23:21.914Z,24.51
2019-05-30T15:28:26.029Z,24.92
2019-05-30T15:33:30.151Z,24.56
2019-05-30T15:38:34.600Z,24.62
2019-05-30T15:43:38.690Z,24.18
2019-05-30T15:48:43.317Z,23.73
2019-05-30T15:53:47.712Z,23.94
2019-05-30T15:58:51.718Z,24.08
2019-05-30T16:03:56.170Z,24.51
2019-05-30T16:09:00.310Z,24.13
2019-05-30T16:14:04.459Z,24.41
2019-05-30T16:19:19.324Z,24.67
2019-05-30T16:24:14.588Z,24.83
2019-05-30T16:29:19.791Z,24.33
2019-05-30T16:34:23.851Z,23.97
2019-05-30T16:39:28.161Z,23.95
2019-05-30T16:44:32.203Z,23.82
2019-05-30T16:49:36.263Z,23.85
2019-05-30T16:54:40.351Z,23.62
2019-05-30T16:59:44.390Z,23.34
2019-05-30T17:04:48.521Z,22.59
2019-05-30T17:09:52.629Z,22.15
2019-05-30T17:14:56.667Z,21.90
2019-05-30T17:20:00.868Z,21.55
2019-05-30T17:25:05.371Z,21.78
2019-05-30T17:30:10.172Z,21.63
2019-05-30T17:35:14.429Z,21.42
2019-05-30T17:40:18.667Z,20.99
2019-05-30T17:45:23.209Z,20.72
2019-05-30T17:50:27.866Z,20.62
2019-05-30T17:55:32.425Z,20.84
2019-05-30T18:00:36.534Z,20.56
2019-05-30T18:05:40.677Z,20.50
2019-05-30T18:10:53.325Z,20.41
2019-05-30T18:15:50.831Z,20.32
2019-05-30T18:20:55.489Z,20.30
2019-05-30T18:25:59.606Z,20.21
2019-05-30T18:31:03.685Z,20.10
2019-05-30T18:36:07.819Z,20.04
2019-05-30T18:41:16.396Z,19.93
2019-05-30T18:46:18.019Z,19.81
2019-05-30T18:51:22.085Z,19.76
2019-05-30T18:56:32.803Z,19.70
2019-05-30T19:01:37.964Z,19.64
2019-05-30T19:06:42.132Z,19.60
2019-05-30T19:11:46.217Z,19.50
2019-05-30T19:16:50.294Z,19.39
2019-05-30T19:21:55.134Z,19.38
2019-05-30T19:26:59.160Z,19.26
2019-05-30T19:32:03.333Z,19.13
2019-05-30T19:37:07.411Z,19.01
2019-05-30T19:42:11.461Z,18.89
2019-05-30T19:47:18.080Z,18.78
2019-05-30T19:52:24.078Z,18.69
2019-05-30T19:57:29.367Z,18.64
2019-05-30T20:02:33.982Z,18.53
2019-05-30T20:07:40.893Z,18.49
2019-05-30T20:12:46.261Z,18.45
2019-05-30T20:17:50.808Z,18.37
2019-05-30T20:22:56.878Z,18.29
2019-05-30T20:28:02.047Z,18.18
2019-05-30T20:33:07.014Z,18.04
2019-05-30T20:38:12.369Z,17.89
2019-05-30T20:43:17.503Z,17.90
2019-05-30T20:48:23.161Z,17.91
2019-05-30T20:53:27.933Z,17.93
2019-05-30T20:58:32.204Z,17.87
2019-05-30T21:03:37.815Z,17.64
2019-05-30T21:08:43.137Z,17.35
2019-05-30T21:13:50.104Z,17.09
2019-05-30T21:18:56.236Z,16.85
2019-05-30T21:24:00.375Z,16.66
2019-05-30T21:29:04.427Z,16.42
2019-05-30T21:34:08.488Z,16.26
2019-05-30T21:39:12.456Z,16.04
2019-05-30T21:44:17.216Z,15.91
2019-05-30T21:49:21.698Z,15.76
2019-05-30T21:54:26.104Z,15.67
2019-05-30T21:59:30.662Z,15.55
2019-05-30T22:04:35.058Z,15.32
2019-05-30T22:09:39.604Z,15.27
2019-05-30T22:14:44.078Z,15.14
2019-05-30T22:19:48.454Z,15.11
2019-05-30T22:24:52.931Z,15.09
2019-05-30T22:29:57.108Z,15.03
2019-05-30T22:35:01.149Z,14.91
2019-05-30T22:40:05.373Z,14.84
2019-05-30T22:45:09.557Z,14.74
2019-05-30T22:50:13.935Z,14.69
2019-05-30T22:55:18.066Z,14.64
2019-05-30T23:00:22.876Z,14.60
2019-05-30T23:05:27.017Z,14.50
2019-05-30T23:10:31.159Z,14.39
2019-05-30T23:15:35.599Z,14.32
2019-05-30T23:20:39.641Z,14.30
2019-05-30T23:25:43.819Z,14.25
2019-05-30T23:30:47.963Z,14.25
2019-05-30T23:35:52.378Z,14.21
2019-05-30T23:40:57.129Z,14.16
2019-05-30T23:46:01.253Z,14.11
2019-05-30T23:51:05.399Z,13.99
2019-05-30T23:56:09.453Z,13.80
